CSUN New Campus Station -PST Time - Most Recent Data on bottom of page




           Date/Time      Avg      Avg      Max     Wind      Avg      Max      Min      Avg      Avg    Total      Avg     Batt
                         Wind     Wind     Wind      Dir     Temp     Temp     Temp       RH      Bar     Rain    Solar     Volt
                      Spd MPH      Dir  Spd MPH   at Max    Deg_F    Deg_F    Deg_F        % Press_mb   Inches     W/m2      Min
--------------------------------------------------------------------------------------------------------------------------------
    07/18/2017 00:00      1.7      150      4.0      152     70.0     70.2     69.7       72     1012     0.00        0     13.1
    07/18/2017 00:15      1.9      149      3.2      131     69.7     70.0     69.5       73     1012     0.00        0     13.1
    07/18/2017 00:30      1.6      151      2.9      153     69.3     69.7     69.0       74     1012     0.00        0     13.2
    07/18/2017 00:45      1.3      159      3.0      157     69.1     69.3     68.9       74     1012     0.00        0     13.2
    07/18/2017 01:00      1.5      155      2.5      158     68.9     69.2     68.6       75     1012     0.00        0     13.2
    07/18/2017 01:15      0.6      175      2.3      154     68.6     68.9     68.2       76     1012     0.00        0     13.2
    07/18/2017 01:30      1.9      153      3.0      145     68.3     68.5     68.1       76     1011     0.00        0     13.2
    07/18/2017 01:45      1.2      146      2.9      159     68.1     68.3     67.9       76     1011     0.00        0     13.2
    07/18/2017 02:00      1.1      133      3.0      136     68.0     68.3     67.8       76     1011     0.00        0     13.2
    07/18/2017 02:15      1.7      148      3.1      163     68.1     68.3     67.8       76     1012     0.00        0     13.2
    07/18/2017 02:30      1.7      146      3.2      153     67.8     68.0     67.5       77     1012     0.00        0     13.2
    07/18/2017 02:45      1.0      157      2.3      152     67.5     67.8     67.2       77     1012     0.00        0     13.2
    07/18/2017 03:00      0.5      189      1.4      219     67.1     67.4     66.8       78     1012     0.00        0     13.2
    07/18/2017 03:15      0.0      287      0.9      292     66.8     67.1     66.6       79     1012     0.00        0     13.2
    07/18/2017 03:30      0.3      147      1.3      137     66.6     66.8     66.3       81     1012     0.00        0     13.2
    07/18/2017 03:45      0.5      153      1.7      155     66.6     66.8     66.3       81     1012     0.00        0     13.2
    07/18/2017 04:00      0.8      169      1.9      160     66.4     66.7     66.1       81     1012     0.00        0     13.2
    07/18/2017 04:15      0.8      155      1.9      134     66.2     66.4     65.9       82     1012     0.00        0     13.2
    07/18/2017 04:30      0.0      275      0.7      277     66.1     66.2     65.9       82     1012     0.00        0     13.2
    07/18/2017 04:45      0.3      288      1.2      306     66.0     66.2     65.9       83     1012     0.00        0     13.2
    07/18/2017 05:00      0.2      287      1.1      292     66.1     66.3     65.9       82     1012     0.00        2     13.2
    07/18/2017 05:15      0.3      156      1.7      146     65.8     66.0     65.6       83     1012     0.00        5     13.2
    07/18/2017 05:30      1.5      146      2.7      142     65.7     66.0     65.4       84     1012     0.00       13     13.2
    07/18/2017 05:45      1.8      147      2.9      151     66.2     66.7     65.7       82     1012     0.00       25     13.2
    07/18/2017 06:00      1.5      152      2.9      158     67.0     67.5     66.5       81     1013     0.00       58     13.2
    07/18/2017 06:15      1.1      184      1.9      186     68.3     69.4     67.5       76     1013     0.00      144     13.2
    07/18/2017 06:30      0.9      145      2.9      160     70.5     71.3     69.2       70     1013     0.00      186     13.2
    07/18/2017 06:45      1.3       63      2.9       70     71.9     72.3     71.2       68     1013     0.00      235     13.1
    07/18/2017 07:00      1.1       52      3.6       64     72.4     72.8     72.0       67     1013     0.00      287     13.1
    07/18/2017 07:15      1.2       41      3.4       71     73.8     74.2     72.7       63     1013     0.00      336     13.1
    07/18/2017 07:30      1.2      156      3.4      201     74.8     75.5     73.9       59     1013     0.00      373     13.1
    07/18/2017 07:45      1.4      108      3.7      144     75.9     76.2     75.5       54     1013     0.00      433     13.1
    07/18/2017 08:00      1.8      104      5.3      169     77.3     77.9     75.8       48     1013     0.00      477     13.0
    07/18/2017 08:15      2.8       96      6.0       86     77.3     77.8     76.9       47     1013     0.00      519     13.0
    07/18/2017 08:30      2.8      101      6.5       69     78.7     79.6     77.8       40     1013     0.00      565     13.0
    07/18/2017 08:45      2.9      125      6.3      167     79.3     80.0     78.3       36     1013     0.00      611     13.0
    07/18/2017 09:00      2.5      143      5.9      157     80.6     81.7     79.5       36     1013     0.00      651     13.0
    07/18/2017 09:15      2.6      130      5.3       88     81.3     82.2     80.7       35     1013     0.00      689     13.0
    07/18/2017 09:30      3.7      151      9.3      148     81.8     82.3     81.2       26     1014     0.00      729     13.0
    07/18/2017 09:45      3.5       94      8.2       77     81.9     82.4     81.3       29     1013     0.00      764     12.9
    07/18/2017 10:00      3.0      107      7.3      126     83.1     83.9     81.8       30     1013     0.00      793     12.9
    07/18/2017 10:15      3.9      144      8.9      166     83.7     84.5     82.7       32     1013     0.00      819     12.9
    07/18/2017 10:30      3.5      122      7.1      111     83.9     84.5     83.3       30     1013     0.00      842     12.9
    07/18/2017 10:45      3.1      162      8.6      193     84.2     85.0     83.5       30     1013     0.00      863     12.9
    07/18/2017 11:00      2.9      181      7.0      188     85.6     86.5     84.8       29     1013     0.00      880     12.9
    07/18/2017 11:15      3.3      153      7.2      173     86.2     86.9     85.3       30     1013     0.00      892     12.9
    07/18/2017 11:30      2.4      140      6.2      133     86.0     86.7     85.4       29     1013     0.00      904     12.9
    07/18/2017 11:45      2.8      147      6.1       72     87.3     88.8     86.3       28     1013     0.00      910     12.9
    07/18/2017 12:00      2.7       55      7.6      162     87.9     88.6     87.3       28     1013     0.00      913     12.9
    07/18/2017 12:15      2.8      188      6.5      157     88.8     90.3     87.9       28     1012     0.00      911     12.9
    07/18/2017 12:30      1.9      143      6.6      178     91.2     91.8     90.3       25     1012     0.00      911     12.9
    07/18/2017 12:45      2.6      159      8.3      140     90.8     91.2     90.2       27     1012     0.00      904     12.9
    07/18/2017 13:00      3.2      168      8.4      161     91.3     91.9     90.7       24     1012     0.00      893     12.8
    07/18/2017 13:15      4.5      159      9.1      172     92.4     94.3     91.0       21     1012     0.00      881     12.8
    07/18/2017 13:30      5.3      124     13.1      151     92.5     94.0     91.7       23     1012     0.00      862     12.8
    07/18/2017 13:45      4.4      119     11.5       77     92.5     93.3     91.5       23     1012     0.00      843     12.8
    07/18/2017 14:00      4.2      120     10.1       75     93.0     93.8     92.2       25     1012     0.00      821     12.8
    07/18/2017 14:15      4.5      144     10.0      148     92.9     93.5     92.5       24     1011     0.00      793     12.8
    07/18/2017 14:30      5.1      126     10.3      169     93.1     94.0     92.4       23     1011     0.00      765     12.8
    07/18/2017 14:45      4.7      108     11.1       92     92.1     92.6     91.5       24     1011     0.00      709     12.8
    07/18/2017 15:00      4.1      108      9.7       93     92.5     93.3     91.8       24     1011     0.00      699     12.8
    07/18/2017 15:15      4.0      114      9.2      122     92.0     92.7     91.6       23     1011     0.00      665     12.8
    07/18/2017 15:30      3.8      128      8.9      153     92.7     93.3     92.1       24     1011     0.00      632     12.8
    07/18/2017 15:45      4.0      113     10.1       88     92.3     92.7     91.9       24     1011     0.00      596     12.8
    07/18/2017 16:00      5.1       99     12.0       93     91.3     92.1     90.7       25     1011     0.00      552     12.8
    07/18/2017 16:15      5.1      123     10.3      149     90.6     91.6     90.0       26     1011     0.00      501     12.8
    07/18/2017 16:30      4.4      103     11.1       95     89.2     90.3     88.3       28     1011     0.00      433     12.8
    07/18/2017 16:45      4.0      103     10.5      101     87.4     88.5     86.9       27     1011     0.00      336     12.8
    07/18/2017 17:00      4.5      105     10.5       93     87.1     87.7     86.5       29     1011     0.00      326     12.9
    07/18/2017 17:15      3.4      106      9.4      148     86.7     87.1     86.3       28     1011     0.00      290     12.9
    07/18/2017 17:30      5.2       84      9.7       73     86.1     87.1     85.0       28     1011     0.00      241     12.9
    07/18/2017 17:45      4.3       88      8.0       92     84.7     85.3     84.1       28     1011     0.00       98     12.9
    07/18/2017 18:00      4.7       78      8.0       88     83.7     84.4     83.1       30     1011     0.00       43     12.9
    07/18/2017 18:15      4.9       84      9.9       64     82.8     83.3     82.2       30     1011     0.00       37     12.9
    07/18/2017 18:30      4.5       86      7.7       86     82.0     82.5     81.4       29     1011     0.00       31     13.0
    07/18/2017 18:45      4.6       80      7.6       85     81.3     81.8     80.7       31     1012     0.00       23     13.0
    07/18/2017 19:00      3.6       82      6.7       45     80.4     80.9     80.1       31     1012     0.00       13     13.0
    07/18/2017 19:15      4.5       82      8.7       97     79.3     80.2     78.6       33     1012     0.00        5     13.0
    07/18/2017 19:30      4.3       71      7.6       53     78.3     78.9     77.7       34     1012     0.00        0     13.0
    07/18/2017 19:45      3.7       72      7.8       55     77.6     77.9     77.2       34     1012     0.00        0     13.0
    07/18/2017 20:00      3.8       77      9.6       87     77.1     77.4     76.9       34     1012     0.00        0     13.1
    07/18/2017 20:15      3.3       65      6.0       64     76.9     77.1     76.5       38     1012     0.00        0     13.1
    07/18/2017 20:30      3.2       84      6.5       86     76.7     77.0     76.5       39     1013     0.00        0     13.1
    07/18/2017 20:45      3.0       73      5.6       50     76.4     76.8     76.2       43     1013     0.00        0     13.1
    07/18/2017 21:00      2.6       66      4.5       53     76.0     76.3     75.7       45     1013     0.00        0     13.1
    07/18/2017 21:15      3.1       79      5.6       76     75.6     75.9     75.4       45     1013     0.00        0     13.1
    07/18/2017 21:30      3.4       80      5.9       50     75.2     75.6     74.8       44     1013     0.00        0     13.1
    07/18/2017 21:45      3.5       68      6.9       83     74.6     75.0     74.2       48     1013     0.00        0     13.1
    07/18/2017 22:00      2.7       66      5.1       45     74.2     74.5     73.9       49     1013     0.00        0     13.1
    07/18/2017 22:15      2.4       70      5.3       95     73.8     74.1     73.5       48     1013     0.00        0     13.1
    07/18/2017 22:30      2.0       77      3.5       85     73.5     73.7     73.2       48     1013     0.00        0     13.1
    07/18/2017 22:45      1.8       74      3.0       73     73.3     73.5     73.0       49     1013     0.00        0     13.1
    07/18/2017 23:00      1.5       74      2.7       54     72.9     73.2     72.6       50     1013     0.00        0     13.1
    07/18/2017 23:15      1.5       72      3.0       90     72.7     72.9     72.5       52     1013     0.00        0     13.1
    07/18/2017 23:30      1.6       82      2.9       85     72.5     72.8     72.2       51     1013     0.00        0     13.1
    07/18/2017 23:45      1.4       79      2.8      100     72.0     72.3     71.8       49     1013     0.00        0     13.1
    07/19/2017 00:00      1.3       65      2.5       51     71.9     72.3     71.6       47     1013     0.00        0     13.1
    07/19/2017 00:15      1.1       87      2.8       90     71.7     72.0     71.3       49     1013     0.00        0     13.1
    07/19/2017 00:30      0.5      140      2.9       86     70.9     71.4     70.5       50     1013     0.00        0     13.1
    07/19/2017 00:45      0.6       71      2.7       94     70.5     70.8     70.2       51     1013     0.00        0     13.2
    07/19/2017 01:00      0.0       11      1.1      319     70.0     70.4     69.6       52     1013     0.00        0     13.2
    07/19/2017 01:15      1.6       77      2.6       86     69.9     70.5     69.5       53     1013     0.00        0     13.2
    07/19/2017 01:30      0.4      132      1.6      152     69.8     70.5     69.1       55     1013     0.00        0     13.2
    07/19/2017 01:45      0.8       97      3.7      108     69.0     69.4     68.8       58     1013     0.00        0     13.2
    07/19/2017 02:00      0.9       76      2.7       89     69.2     69.4     69.0       61     1013     0.00        0     13.2
    07/19/2017 02:15      1.9       79      3.0       66     69.1     69.4     69.0       62     1013     0.00        0     13.2
    07/19/2017 02:30      2.0       71      3.7       67     69.0     69.2     68.7       63     1013     0.00        0     13.2
    07/19/2017 02:45      2.3       74      3.6       52     68.7     69.0     68.5       64     1013     0.00        0     13.2
    07/19/2017 03:00      1.9       59      3.9       64     68.5     68.7     68.2       66     1013     0.00        0     13.2
    07/19/2017 03:15      1.1      319      2.8      338     68.1     68.4     67.7       67     1013     0.00        0     13.2
    07/19/2017 03:30      0.8      281      2.1      292     67.6     68.0     67.1       69     1013     0.00        0     13.2
    07/19/2017 03:45      0.4       91      1.7      141     67.0     67.4     66.8       69     1013     0.00        0     13.2
    07/19/2017 04:00      0.8      138      2.2      137     66.7     67.0     66.3       71     1013     0.00        0     13.2
    07/19/2017 04:15      0.6      132      1.6      147     66.5     66.7     66.2       72     1013     0.00        0     13.2
    07/19/2017 04:30      0.4      151      1.8      148     66.4     66.7     66.2       73     1013     0.00        0     13.2
    07/19/2017 04:45      0.3        6      1.3      343     66.3     66.5     66.1       73     1014     0.00        0     13.2
    07/19/2017 05:00      0.6      292      1.4      288     66.3     66.5     66.2       73     1014     0.00        1     13.2
    07/19/2017 05:15      0.7      299      1.4      295     66.3     66.4     66.0       73     1014     0.00        7     13.2
    07/19/2017 05:30      0.7      300      1.5      326     66.2     66.3     66.0       71     1014     0.00       16     13.2
    07/19/2017 05:45      0.3      297      1.0      288     66.5     66.8     66.0       70     1014     0.00       23     13.2
    07/19/2017 06:00      0.0      247      1.0      242     67.1     67.9     66.7       69     1014     0.00       53     13.2
    07/19/2017 06:15      0.2      164      1.2      160     69.6     71.5     67.8       60     1014     0.00      144     13.2
    07/19/2017 06:30      0.8      200      2.5      200     72.0     72.4     71.4       59     1014     0.00      188     13.2
    07/19/2017 06:45      1.4      195      2.8      177     72.5     72.9     72.1       58     1014     0.00      235     13.1
    07/19/2017 07:00      1.1      179      3.2      152     73.9     74.9     72.7       55     1014     0.00      282     13.1
    07/19/2017 07:15      1.7      180      4.2      184     74.3     74.9     73.8       57     1014     0.00      331     13.1
    07/19/2017 07:30      1.6      172      4.5      177     74.9     75.4     74.0       54     1014     0.00      367     13.1
    07/19/2017 07:45      2.0      140      4.5      170     75.3     76.2     74.7       52     1014     0.00      426     13.0
    07/19/2017 08:00      1.4      156      3.9      167     77.3     78.6     76.1       47     1014     0.00      473     13.0
    07/19/2017 08:15      1.8      108      3.8       93     78.8     79.5     78.1       46     1014     0.00      519     13.0
    07/19/2017 08:30      2.8       80      6.6       48     79.7     80.2     79.0       43     1014     0.00      563     13.0
    07/19/2017 08:45      2.3      112      6.7       68     80.6     81.5     79.8       37     1015     0.00      600     13.0
    07/19/2017 09:00      2.7      126      6.6       88     81.9     82.6     81.2       36     1015     0.00      643     13.0
    07/19/2017 09:15      3.0      140      6.9      130     82.8     83.5     82.0       36     1015     0.00      683     12.9
    07/19/2017 09:30      2.8      147      7.0      125     82.9     83.3     82.3       36     1014     0.00      717     12.9
    07/19/2017 09:45      3.1      143      7.7       91     84.6     85.5     83.1       38     1014     0.00      750     12.9
    07/19/2017 10:00      2.9      130      7.3      154     84.2     84.8     83.3       39     1014     0.00      776     12.9
    07/19/2017 10:15      4.5      154      8.8      173     85.5     86.7     84.6       35     1014     0.00      804     12.9
    07/19/2017 10:30      3.5      171      8.1      177     85.5     86.2     85.0       36     1014     0.00      828     12.9
    07/19/2017 10:45      2.4      109      6.0       94     86.1     86.5     85.7       35     1014     0.00      849     12.9
    07/19/2017 11:00      3.0      138      7.7      140     85.9     86.4     84.8       35     1014     0.00      864     12.9
    07/19/2017 11:15      2.8      142      6.4      196     86.9     87.8     85.9       35     1014     0.00      877     12.9
    07/19/2017 11:30      3.3      128      8.3      196     87.2     87.7     86.7       33     1014     0.00      888     12.9
    07/19/2017 11:45      3.4      164      9.0      159     88.6     89.1     87.8       33     1014     0.00      895     12.9
    07/19/2017 12:00      3.5      167      8.6       91     88.7     89.8     88.0       32     1014     0.00      896     12.9
    07/19/2017 12:15      3.4       91      7.7      155     89.6     90.5     89.1       31     1014     0.00      896     12.9
    07/19/2017 12:30      3.2      120      7.8      135     90.1     91.0     89.3       30     1013     0.00      899     12.9
    07/19/2017 12:45      3.6       92      9.6       95     91.0     91.4     90.6       30     1013     0.00      877     12.9
    07/19/2017 13:00      4.2      119      8.3       99     91.7     92.3     90.7       29     1013     0.00      884     12.8
    07/19/2017 13:15      4.4      113      9.0      119     91.9     92.9     91.2       27     1013     0.00      871     12.8
    07/19/2017 13:30      3.9      125      8.8      190     93.2     94.2     92.4       27     1013     0.00      853     12.8
    07/19/2017 13:45      4.9      124     11.2      141     92.8     93.7     92.1       27     1013     0.00      832     12.8
    07/19/2017 14:00      5.3      126     12.7      138     92.1     92.6     91.6       27     1013     0.00      808     12.8
    07/19/2017 14:15      5.0      104     10.7      130     91.4     92.2     90.8       27     1012     0.00      782     12.8
    07/19/2017 14:30      5.5      111     11.8       86     90.9     91.9     90.5       29     1012     0.00      755     12.8
    07/19/2017 14:45      5.6      132     12.4      139     90.8     91.5     90.3       29     1012     0.00      714     12.8
    07/19/2017 15:00      4.9      134     11.6       89     90.5     91.1     89.5       31     1012     0.00      705     12.8
    07/19/2017 15:15      5.0      128     14.4       83     90.3     91.1     89.5       30     1012     0.00      712     12.8
    07/19/2017 15:30      5.3      116     11.9       97     90.3     91.1     89.6       30     1012     0.00      703     12.8
    07/19/2017 15:45      4.6      108     11.1      149     89.6     90.6     88.7       30     1012     0.00      490     12.8
    07/19/2017 16:00      5.7      101     11.9       97     88.4     89.5     87.8       29     1012     0.00      361     12.8
    07/19/2017 16:15      5.0       85     11.1      122     87.9     88.3     87.5       27     1011     0.00      478     12.9
    07/19/2017 16:30      4.6      104     10.7      112     87.9     88.4     87.5       27     1011     0.00      472     12.9
    07/19/2017 16:45      5.5       97     11.9      104     87.5     88.4     86.8       24     1012     0.00      426     12.9
    07/19/2017 17:00      4.9       89      9.5       90     87.1     87.7     86.5       22     1011     0.00      369     12.9
    07/19/2017 17:15      5.7       84      9.7       94     86.4     87.0     86.0       22     1012     0.00      310     12.9
    07/19/2017 17:30      4.4       92     10.0       86     86.1     86.7     85.4       25     1012     0.00      257     12.9
    07/19/2017 17:45      5.5       80     10.7       74     85.0     85.9     84.4       26     1012     0.00       88     12.9
    07/19/2017 18:00      4.4       83      8.0       93     84.4     84.7     84.1       27     1012     0.00       40     12.9
    07/19/2017 18:15      4.7       77      8.3       76     83.8     84.5     83.4       28     1012     0.00       33     12.9
    07/19/2017 18:30      4.0       74      7.0       71     83.0     83.5     82.7       27     1012     0.00       31     13.0
    07/19/2017 18:45      4.1       61      8.1       45     82.6     83.1     82.1       27     1012     0.00       27     13.0
    07/19/2017 19:00      3.1       77      6.1       47     82.1     82.4     81.6       27     1012     0.00       18     13.0
    07/19/2017 19:15      2.9       83      6.8       78     81.4     82.0     80.9       28     1012     0.00        8     13.0
    07/19/2017 19:30      2.0       92      4.9       75     80.7     81.1     80.4       26     1013     0.00        0     13.0
    07/19/2017 19:45      1.7       78      3.9       88     80.3     80.6     80.0       26     1013     0.00        0     13.0
    07/19/2017 20:00      2.1       76      3.5       80     80.0     80.3     79.7       26     1013     0.00        0     13.0
    07/19/2017 20:15      2.4       73      4.9       76     79.5     79.9     79.3       25     1013     0.00        0     13.1
    07/19/2017 20:30      2.7       76      4.7       78     79.2     79.5     79.0       26     1013     0.00        0     13.0
    07/19/2017 20:45      1.3       81      4.3       92     78.7     79.1     78.2       28     1013     0.00        0     13.0
    07/19/2017 21:00      0.9       86      3.8       90     77.9     78.3     77.6       32     1014     0.00        0     13.1
    07/19/2017 21:15      1.9       95      4.9      111     77.7     78.0     77.2       35     1014     0.00        0     13.1
    07/19/2017 21:30      2.0       88      4.1       79     77.1     77.4     76.8       37     1014     0.00        0     13.1
    07/19/2017 21:45      2.2       88      3.9       91     76.7     77.0     76.4       40     1014     0.00        0     13.1
    07/19/2017 22:00      2.3       70      3.5       99     76.2     76.5     75.9       43     1014     0.00        0     13.1
    07/19/2017 22:15      1.9       69      4.3       49     75.7     76.1     75.4       45     1014     0.00        0     13.1
    07/19/2017 22:30      2.7       75      5.3       86     75.2     75.5     74.7       47     1014     0.00        0     13.1
    07/19/2017 22:45      2.6       76      4.1       92     74.7     75.0     74.4       48     1014     0.00        0     13.1
    07/19/2017 23:00      2.5       80      5.0       80     74.3     74.7     74.0       50     1014     0.00        0     13.1
    07/19/2017 23:15      2.5       73      4.3       69     73.7     74.1     73.3       47     1014     0.00        0     13.1
    07/19/2017 23:30      3.4       78      6.4       75     73.3     73.7     73.0       46     1014     0.00        0     13.1
    07/19/2017 23:45      2.6       70      5.2       57     72.9     73.3     72.6       48     1014     0.00        0     13.1
    07/20/2017 00:00      1.7       77      3.4       71     72.6     72.9     72.3       53     1014     0.00        0     13.1
    07/20/2017 00:15      1.0       59      2.7       92     72.2     72.6     71.8       52     1014     0.00        0     13.1
    07/20/2017 00:30      2.6       44      4.3       50     71.9     72.2     71.7       52     1014     0.00        0     13.1
    07/20/2017 00:45      2.0       49      3.3       55     71.8     72.1     71.6       53     1014     0.00        0     13.1
    07/20/2017 01:00      1.9       60      3.2       83     71.7     71.9     71.5       53     1014     0.00        0     13.1
    07/20/2017 01:15      1.9       71      3.6       70     71.4     71.7     71.1       56     1014     0.00        0     13.1
    07/20/2017 01:30      1.6       80      3.0       70     71.0     71.3     70.8       56     1014     0.00        0     13.1
    07/20/2017 01:45      1.0      104      2.7       66     70.6     70.9     70.2       54     1014     0.00        0     13.2
    07/20/2017 02:00      1.0       93      2.2       48     70.1     70.4     69.9       55     1014     0.00        0     13.2
    07/20/2017 02:15      1.8       70      2.9       77     70.0     70.2     69.8       56     1014     0.00        0     13.2
    07/20/2017 02:30      1.9       73      3.2       79     69.7     70.0     69.4       57     1014     0.00        0     13.2
    07/20/2017 02:45      2.0       77      3.7       72     69.5     69.7     69.2       59     1014     0.00        0     13.2
    07/20/2017 03:00      1.2       83      2.9       66     69.2     69.6     68.9       60     1014     0.00        0     13.2
    07/20/2017 03:15      0.4       84      2.1       89     68.6     69.1     68.3       64     1014     0.00        0     13.2
    07/20/2017 03:30      1.5       74      2.2       66     68.4     68.7     68.2       63     1014     0.00        0     13.2
    07/20/2017 03:45      0.9       44      2.1       35     68.3     68.7     67.9       64     1014     0.00        0     13.2
    07/20/2017 04:00      1.6       44      2.7       49     68.2     68.5     67.9       67     1014     0.00        0     13.2
    07/20/2017 04:15      1.1       65      2.4       57     68.0     68.3     67.7       69     1014     0.00        0     13.2
    07/20/2017 04:30      1.2       62      2.3       71     67.7     68.0     67.5       70     1014     0.00        0     13.2
    07/20/2017 04:45      1.2       74      2.5       82     67.7     67.9     67.5       71     1014     0.00        0     13.2
    07/20/2017 05:00      0.0      101      1.1      104     67.0     67.5     66.3       73     1014     0.00        2     13.2
    07/20/2017 05:15      0.2       66      1.0       55     66.3     66.5     66.0       75     1014     0.00        6     13.2
    07/20/2017 05:30      1.0      144      2.5      145     66.2     66.4     66.0       76     1014     0.00       14     13.2
    07/20/2017 05:45      0.7      127      2.2      161     66.5     66.9     66.0       77     1015     0.00       24     13.2
    07/20/2017 06:00      1.4      108      3.5       40     67.3     68.0     66.8       75     1015     0.00       54     13.2
    07/20/2017 06:15      1.7       65      3.4       85     69.2     70.2     67.9       70     1015     0.00      143     13.2
    07/20/2017 06:30      1.5      113      3.7      126     70.7     71.0     70.1       68     1015     0.00      190     13.2
    07/20/2017 06:45      1.3      122      4.6      171     72.2     72.8     70.9       64     1015     0.00      238     13.1
    07/20/2017 07:00      2.9      168      4.9      154     72.3     72.9     71.4       66     1015     0.00      289     13.1
    07/20/2017 07:15      1.4       44      2.8       97     72.2     72.8     71.3       63     1015     0.00      339     13.1
    07/20/2017 07:30      2.0      191      4.8      159     72.6     73.4     72.0       64     1015     0.00      378     13.1
    07/20/2017 07:45      2.3      149      4.6      168     74.0     75.2     73.3       59     1015     0.00      436     13.1
    07/20/2017 08:00      1.2       90      4.1       74     75.7     76.1     75.1       56     1015     0.00      482     13.0
    07/20/2017 08:15      2.8      139      7.5      162     76.6     77.3     75.7       54     1015     0.00      529     13.0
    07/20/2017 08:30      2.7      119      6.2       96     77.1     77.5     76.6       55     1015     0.00      569     13.0
    07/20/2017 08:45      2.6      134      6.0      118     77.5     78.2     76.7       50     1015     0.00      614     13.0
    07/20/2017 09:00      3.5      132      6.8      146     78.3     79.2     77.8       50     1015     0.00      659     13.0
    07/20/2017 09:15      3.3      132      8.8      148     79.8     80.2     79.2       47     1015     0.00      696     13.0
    07/20/2017 09:30      3.3      173      8.1      136     79.3     79.9     78.8       48     1016     0.00      733     13.0
    07/20/2017 09:45      3.0      119      6.6      164     80.7     81.9     79.7       44     1016     0.00      739     13.0
    07/20/2017 10:00      4.4      154      8.8      131     81.4     82.7     80.5       44     1016     0.00      797     12.9
    07/20/2017 10:15      3.0      102      8.6      105     82.2     82.4     81.9       43     1015     0.00      828     12.9
    07/20/2017 10:30      3.1      159      8.1      148     83.0     84.1     82.1       41     1015     0.00      850     12.9
    07/20/2017 10:45      3.8      155      9.3      161     83.8     84.6     83.0       40     1015     0.00      873     12.9
    07/20/2017 11:00      2.6      126      7.2       86     84.7     85.3     84.2       38     1015     0.00      888     12.9
    07/20/2017 11:15      3.4      177      8.2      167     84.7     86.2     83.1       36     1015     0.00      894     12.9
    07/20/2017 11:30      3.1      120      8.2      163     85.8     86.8     85.3       34     1015     0.00      925     12.9
    07/20/2017 11:45      4.0      166      8.2      151     86.7     87.9     85.7       34     1015     0.00      929     12.9
    07/20/2017 12:00      4.4      163      9.6      176     88.0     88.6     87.4       30     1014     0.00      933     12.9
    07/20/2017 12:15      3.8      167      7.8      158     88.7     90.7     87.6       26     1014     0.00      935     12.9
    07/20/2017 12:30      3.5      108      9.6      131     89.3     90.2     88.8       27     1014     0.00      885     12.9
    07/20/2017 12:45      3.8      109      9.3      146     90.0     91.6     89.1       27     1014     0.00      925     12.9
    07/20/2017 13:00      4.4      128      9.4      148     90.7     91.5     90.1       27     1014     0.00      909     12.9
    07/20/2017 13:15      4.9      109     11.1       90     90.6     91.3     89.9       25     1014     0.00      875     12.9
    07/20/2017 13:30      5.8      142     13.4      147     91.0     92.0     89.8       24     1014     0.00      886     12.9
    07/20/2017 13:45      4.6      126      9.8      157     91.2     91.7     90.8       24     1013     0.00      867     12.8
    07/20/2017 14:00      4.6      121     10.4      163     91.4     92.1     90.7       23     1013     0.00      845     12.8
    07/20/2017 14:15      5.9      140     11.5      155     91.0     91.9     90.0       23     1013     0.00      819     12.8
    07/20/2017 14:30      7.2      151     13.0      167     91.9     92.5     91.1       21     1013     0.00      794     12.8
    07/20/2017 14:45      4.7      134     10.3      157     92.0     92.6     91.5       18     1013     0.00      750     12.8
    07/20/2017 15:00      5.2      139      9.5      158     92.1     93.0     91.5       16     1012     0.00      706     12.8
    07/20/2017 15:15      4.7      109     10.1      141     91.8     92.6     91.3       16     1012     0.00      685     12.8
    07/20/2017 15:30      4.0      109     11.6       82     92.1     92.6     91.8       16     1012     0.00      642     12.8
    07/20/2017 15:45      4.8      137     10.6      143     92.4     92.8     92.0       16     1012     0.00      597     12.8
    07/20/2017 16:00      5.0      137     11.2      137     92.3     92.9     91.8       14     1012     0.00      550     12.8
    07/20/2017 16:15      5.0      124     10.2      160     92.0     92.6     91.2       15     1012     0.00      503     12.8
    07/20/2017 16:30      4.4      129     11.6      131     91.6     91.9     91.2       15     1011     0.00      451     12.8
    07/20/2017 16:45      5.5      143     11.3      141     91.4     91.9     90.9       16     1011     0.00      400     12.8
    07/20/2017 17:00      3.9      133      9.4      154     90.5     91.2     89.7       17     1011     0.00      347     12.8
    07/20/2017 17:15      4.0      119      9.4      116     89.1     90.0     88.6       17     1011     0.00      300     12.9
    07/20/2017 17:30      3.5      110      8.3       79     88.4     89.1     87.7       17     1012     0.00      247     12.9
    07/20/2017 17:45      3.4      114      7.1      108     87.3     88.0     86.6       16     1012     0.00       65     12.9
    07/20/2017 18:00      3.1      101      8.6       92     86.0     86.7     85.5       17     1012     0.00       32     12.9
    07/20/2017 18:15      3.4       99      6.1      111     85.1     85.6     84.6       21     1012     0.00       27     12.9
    07/20/2017 18:30      3.6       92      8.5       87     84.1     84.8     83.4       25     1012     0.00       22     13.0
    07/20/2017 18:45      2.7      103      7.8      114     82.6     83.6     81.9       28     1012     0.00       15     13.0
    07/20/2017 19:00      2.9       89      6.9       81     81.4     82.1     80.6       31     1012     0.00        8     13.0
    07/20/2017 19:15      3.1       82      5.7       77     80.1     80.8     79.6       32     1013     0.00        3     13.0
    07/20/2017 19:30      2.6       96      6.1       91     79.2     79.8     78.5       35     1013     0.00        0     13.0
    07/20/2017 19:45      3.5       80      5.7       74     77.9     78.6     77.3       39     1013     0.00        0     13.0
    07/20/2017 20:00      2.9       81      6.2       69     77.1     77.5     76.6       38     1013     0.00        0     13.1
    07/20/2017 20:15      3.4       73      6.0       69     76.5     76.8     76.1       40     1013     0.00        0     13.1
    07/20/2017 20:30      2.8       86      5.7       79     76.0     76.3     75.7       43     1013     0.00        0     13.1
    07/20/2017 20:45      2.7       91      5.3       72     75.6     75.9     75.2       45     1013     0.00        0     13.1
    07/20/2017 21:00      2.2      105      5.0       92     75.0     75.3     74.5       47     1013     0.00        0     13.1
    07/20/2017 21:15      2.0       87      5.0      102     74.3     74.7     73.9       48     1013     0.00        0     13.1
    07/20/2017 21:30      2.8       80      4.4       81     73.9     74.1     73.6       48     1013     0.00        0     13.1
    07/20/2017 21:45      1.9       71      4.4       85     73.5     73.8     73.2       50     1013     0.00        0     13.1
    07/20/2017 22:00      2.3       71      4.1       72     73.0     73.3     72.8       49     1013     0.00        0     13.1
    07/20/2017 22:15      2.2       53      3.9       59     72.6     72.9     72.3       49     1013     0.00        0     13.1
    07/20/2017 22:30      2.1       73      4.2       78     72.3     72.6     72.0       49     1013     0.00        0     13.1
    07/20/2017 22:45      1.8       76      3.4       65     71.9     72.2     71.5       49     1013     0.00        0     13.1
    07/20/2017 23:00      1.8       58      3.6       56     71.6     71.8     71.4       49     1013     0.00        0     13.1
    07/20/2017 23:15      2.5       61      4.4       47     71.4     71.7     71.1       49     1013     0.00        0     13.1
    07/20/2017 23:30      2.6       73      5.1       72     71.2     71.4     70.8       49     1013     0.00        0     13.1
    07/20/2017 23:45      2.9       72      6.4       52     70.8     71.1     70.4       51     1013     0.00        0     13.1
    07/21/2017 00:00      2.3       69      4.5       52     70.4     70.7     70.0       53     1013     0.00        0     13.2
    07/21/2017 00:15      2.6       74      4.4       63     69.9     70.3     69.5       55     1013     0.00        0     13.2
    07/21/2017 00:30      2.7       69      4.2       74     69.4     69.7     69.0       58     1013     0.00        0     13.2
    07/21/2017 00:45      2.5       62      4.2       68     69.1     69.4     68.9       59     1013     0.00        0     13.2
    07/21/2017 01:00      2.1       63      4.5       66     68.8     69.1     68.5       60     1013     0.00        0     13.2
    07/21/2017 01:15      2.5       71      4.3       52     68.5     68.8     68.2       61     1013     0.00        0     13.2
    07/21/2017 01:30      1.9       83      3.7       85     68.1     68.5     67.8       61     1013     0.00        0     13.2
    07/21/2017 01:45      0.6       97      2.5      101     67.6     68.0     67.3       63     1013     0.00        0     13.2
    07/21/2017 02:00      0.5      122      3.7      107     67.2     67.5     66.8       64     1013     0.00        0     13.2
    07/21/2017 02:15      1.2      159      2.4      133     66.4     66.9     66.1       67     1012     0.00        0     13.2
    07/21/2017 02:30      0.6      177      1.9      145     66.0     66.4     65.6       67     1012     0.00        0     13.2
    07/21/2017 02:45      0.8      186      1.4      204     65.4     65.7     65.0       69     1012     0.00        0     13.2
    07/21/2017 03:00      0.7      159      1.8      145     64.9     65.1     64.6       71     1012     0.00        0     13.2
    07/21/2017 03:15      1.0      135      2.6      135     65.0     65.5     64.7       71     1012     0.00        0     13.2
    07/21/2017 03:30      0.7      126      1.9      123     65.3     65.6     65.1       71     1012     0.00        0     13.2
    07/21/2017 03:45      0.6       75      1.9       67     65.2     65.4     65.0       72     1012     0.00        0     13.2
    07/21/2017 04:00      0.0      138      1.0      136     64.7     65.2     64.3       73     1012     0.00        0     13.2
    07/21/2017 04:15      0.4      157      1.4      161     64.2     64.4     64.0       75     1012     0.00        0     13.2
    07/21/2017 04:30      0.0        0      0.0      264     64.2     64.5     64.0       74     1013     0.00        0     13.2
    07/21/2017 04:45      0.5      156      2.2      160     63.9     64.2     63.6       76     1013     0.00        0     13.2
    07/21/2017 05:00      1.4      155      2.5      161     63.8     64.0     63.6       76     1013     0.00        2     13.2
    07/21/2017 05:15      0.0       67      0.7       68     63.9     64.1     63.6       76     1013     0.00        7     13.2
    07/21/2017 05:30      1.5       70      2.2       56     64.2     64.9     63.5       72     1013     0.00       17     13.2
    07/21/2017 05:45      1.6       72      2.7       75     65.2     65.5     64.8       72     1013     0.00       25     13.2
    07/21/2017 06:00      1.0       91      2.5       56     65.6     65.9     65.2       73     1013     0.00       59     13.2
    07/21/2017 06:15      1.0      154      3.0      161     66.6     67.2     65.8       70     1013     0.00      143     13.2
    07/21/2017 06:30      1.1      121      2.8      180     68.1     69.3     66.8       66     1013     0.00      187     13.2
    07/21/2017 06:45      1.3       88      3.4       90     69.2     69.5     68.6       66     1013     0.00      235     13.2
    07/21/2017 07:00      1.7       91      3.6      131     69.6     70.0     68.9       64     1014     0.00      283     13.1
    07/21/2017 07:15      1.5       86      4.0       96     70.3     71.3     69.6       61     1014     0.00      332     13.1
    07/21/2017 07:30      2.2      138      4.5       94     71.4     72.4     70.3       62     1014     0.00      373     13.1
    07/21/2017 07:45      1.9      158      4.2      161     71.6     72.1     71.0       60     1014     0.00      434     13.1
    07/21/2017 08:00      1.6      253      3.0      277     72.1     72.5     71.4       59     1014     0.00      483     13.1
    07/21/2017 08:15      2.1      272      3.8      256     73.0     73.8     72.4       56     1014     0.00      529     13.0
    07/21/2017 08:30      1.9       86      4.3       79     74.7     75.4     73.7       50     1014     0.00      573     13.0
    07/21/2017 08:45      1.7      111      5.0       94     76.2     76.9     75.5       49     1014     0.00      616     13.0
    07/21/2017 09:00      2.9      148      9.3      160     77.0     77.6     76.2       46     1014     0.00      655     13.0
    07/21/2017 09:15      2.2      122      6.4      151     77.6     78.3     76.8       46     1014     0.00      694     13.0
    07/21/2017 09:30      3.0      135      7.7      137     78.3     78.9     77.4       43     1014     0.00      730     13.0
    07/21/2017 09:45      2.3      142      6.2      145     79.6     80.6     78.6       42     1014     0.00      768     13.0
    07/21/2017 10:00      3.4      110      6.9      114     80.2     81.0     79.4       41     1014     0.00      798     12.9
    07/21/2017 10:15      2.9       93      7.2       63     80.9     81.7     80.0       43     1014     0.00      823     12.9
    07/21/2017 10:30      3.6      100      8.4       95     81.6     82.1     80.9       38     1014     0.00      846     12.9
    07/21/2017 10:45      3.3      148      9.4      159     82.5     83.3     81.8       36     1014     0.00      836     12.9
    07/21/2017 11:00      3.9       74      8.0      121     82.6     83.5     82.0       37     1013     0.00      864     12.9
    07/21/2017 11:15      4.3      130     10.0      150     84.1     84.9     83.1       36     1013     0.00      890     12.9
    07/21/2017 11:30      2.8      117      8.3       92     84.6     85.4     83.9       33     1013     0.00      906     12.9
    07/21/2017 11:45      2.3      120      6.9      138     85.4     87.0     84.8       32     1013     0.00      919     12.9
    07/21/2017 12:00      2.9      198      7.8      171     86.8     87.6     85.6       33     1013     0.00      918     12.9
    07/21/2017 12:15      3.1      138      6.6      204     86.2     86.8     85.5       32     1013     0.00      921     12.9
    07/21/2017 12:30      3.9      154      8.2      186     86.8     88.0     86.2       30     1013     0.00      920     12.9
    07/21/2017 12:45      3.2      213      6.8      189     88.1     89.6     87.1       29     1012     0.00      908     12.9
    07/21/2017 13:00      4.7      146      9.3      125     89.8     90.3     89.2       30     1012     0.00      898     12.9
    07/21/2017 13:15      4.5      161      9.3      162     89.9     90.8     89.0       30     1012     0.00      845     12.8
    07/21/2017 13:30      4.3      123      8.4       83     90.4     91.8     89.0       31     1012     0.00      864     12.8
    07/21/2017 13:45      4.2      118      9.2       78     89.6     90.0     88.9       30     1012     0.00      843     12.8
    07/21/2017 14:00      3.5      130      8.1      105     89.7     90.3     88.9       31     1011     0.00      819     12.8
    07/21/2017 14:15      4.3      126     10.4      225     90.3     91.2     89.8       31     1011     0.00      790     12.8
    07/21/2017 14:30      3.8      125      8.7      164     91.4     92.1     90.7       29     1011     0.00      763     12.8
    07/21/2017 14:45      4.6      111     10.5       99     90.5     91.4     89.7       30     1011     0.00      715     12.8
    07/21/2017 15:00      4.7      135     11.2      149     90.1     90.4     89.6       30     1011     0.00      660     12.8
    07/21/2017 15:15      3.7      124      8.5      167     90.2     91.5     89.5       28     1011     0.00      642     12.8
    07/21/2017 15:30      3.4      138      8.6      109     90.9     91.7     90.4       27     1010     0.00      605     12.8
    07/21/2017 15:45      4.6      152     11.5      349     90.4     91.0     89.8       28     1010     0.00      567     12.8
    07/21/2017 16:00      4.4      261      9.7      255     90.4     91.3     89.6       28     1010     0.00      526     12.8
    07/21/2017 16:15      4.3      259     10.0      247     90.1     90.8     89.4       26     1010     0.00      482     12.8
    07/21/2017 16:30      3.6      276      8.6      257     89.9     90.4     89.3       26     1010     0.00      436     12.8
    07/21/2017 16:45      3.0      271      9.5      244     89.8     90.3     89.2       26     1010     0.00      389     12.9
    07/21/2017 17:00      3.0      262      7.9      248     89.0     89.7     88.6       25     1010     0.00      339     12.9
    07/21/2017 17:15      3.0      247      7.5      251     88.8     89.2     88.2       24     1010     0.00      292     12.9
    07/21/2017 17:30      2.8      259      7.3      248     88.3     88.7     87.8       24     1010     0.00      245     12.9
    07/21/2017 17:45      2.7      220      7.0      143     87.7     88.6     85.9       31     1010     0.00       63     12.9
    07/21/2017 18:00      2.2      124      7.5      160     85.1     86.0     84.9       33     1010     0.00       33     12.9
    07/21/2017 18:15      2.9      126      7.5      139     84.4     85.1     83.9       34     1010     0.00       26     12.9
    07/21/2017 18:30      2.4      126      6.3      136     83.7     84.2     83.1       35     1010     0.00       21     13.0
    07/21/2017 18:45      2.0      120      5.4      101     82.8     83.3     82.2       36     1010     0.00       14     13.0
    07/21/2017 19:00      2.3       99      4.3       76     81.9     82.4     81.2       38     1010     0.00        7     13.0
    07/21/2017 19:15      2.6       93      5.8       83     80.8     81.3     80.1       40     1010     0.00        2     13.0
    07/21/2017 19:30      2.3       94      6.2       77     79.8     80.4     79.2       41     1011     0.00        0     13.0
    07/21/2017 19:45      3.0       84      5.1       90     78.7     79.4     78.2       43     1011     0.00        0     13.0
    07/21/2017 20:00      1.9      105      5.0       97     77.9     78.4     77.4       45     1011     0.00        0     13.0
    07/21/2017 20:15      1.8      112      4.3      110     76.9     77.6     76.3       47     1011     0.00        0     13.1
    07/21/2017 20:30      2.8       92      5.2       98     76.2     76.5     75.8       48     1011     0.00        0     13.1
    07/21/2017 20:45      2.5       80      5.7       97     75.7     76.1     75.3       48     1011     0.00        0     13.1
    07/21/2017 21:00      1.9       90      4.2       98     75.2     75.5     74.8       50     1011     0.00        0     13.1
    07/21/2017 21:15      1.4       80      3.2       36     74.8     75.1     74.5       51     1011     0.00        0     13.1
    07/21/2017 21:30      2.4       65      4.9       27     74.4     74.7     74.0       54     1011     0.00        0     13.1
    07/21/2017 21:45      2.8       66      5.7       48     73.7     74.2     73.2       56     1011     0.00        0     13.1
    07/21/2017 22:00      2.8       73      4.5       89     73.1     73.5     72.6       58     1011     0.00        0     13.1
    07/21/2017 22:15      2.2       79      3.9       80     72.6     72.9     72.3       59     1011     0.00        0     13.1
    07/21/2017 22:30      2.4       70      4.1       71     72.1     72.5     71.7       61     1011     0.00        0     13.1
    07/21/2017 22:45      2.7       69      5.3       79     71.6     72.0     71.2       62     1011     0.00        0     13.1
    07/21/2017 23:00      2.8       72      5.0      104     71.1     71.4     70.8       61     1011     0.00        0     13.1
    07/21/2017 23:15      3.3       70      6.0       68     70.7     71.1     70.3       62     1011     0.00        0     13.1
    07/21/2017 23:30      3.5       58      6.9       35     70.3     70.6     70.0       62     1012     0.00        0     13.1
    07/21/2017 23:45      2.9       59      6.2       43     69.9     70.3     69.7       61     1012     0.00        0     13.1
    07/22/2017 00:00      2.7       56      6.5       57     69.9     70.1     69.7       60     1012     0.00        0     13.2
    07/22/2017 00:15      2.9       53      5.6       63     69.8     70.0     69.5       60     1012     0.00        0     13.2
    07/22/2017 00:30      2.8       48      5.2       68     69.6     69.8     69.3       59     1012     0.00        0     13.2
    07/22/2017 00:45      2.4       53      3.8       70     69.5     69.7     69.2       61     1012     0.00        0     13.2
    07/22/2017 01:00      2.3       60      4.0       59     69.3     69.6     69.0       63     1012     0.00        0     13.2
    07/22/2017 01:15      1.8       64      4.5       51     68.9     69.2     68.6       65     1012     0.00        0     13.2
    07/22/2017 01:30      1.8       65      3.2       49     68.5     68.8     68.3       66     1012     0.00        0     13.2
    07/22/2017 01:45      1.8       72      3.4       45     68.2     68.6     67.9       68     1012     0.00        0     13.2
    07/22/2017 02:00      1.6       70      2.9       61     68.0     68.2     67.7       69     1012     0.00        0     13.2
    07/22/2017 02:15      1.4       80      2.2       66     67.7     67.9     67.3       69     1012     0.00        0     13.2
    07/22/2017 02:30      1.1      131      3.2      163     66.9     67.4     66.6       72     1012     0.00        0     13.2
    07/22/2017 02:45      0.8      146      2.1      148     66.3     66.8     65.9       74     1012     0.00        0     13.2
    07/22/2017 03:00      0.4      127      1.4       76     65.9     66.1     65.7       75     1012     0.00        0     13.2
    07/22/2017 03:15      0.4      181      1.6      164     65.7     66.2     65.4       76     1012     0.00        0     13.2
    07/22/2017 03:30      0.3      302      1.0      303     65.2     65.6     65.0       77     1012     0.00        0     13.2
    07/22/2017 03:45      0.8      297      1.4      314     65.1     65.3     64.7       77     1011     0.00        0     13.2
    07/22/2017 04:00      0.0        0      0.0      295     64.7     65.1     64.2       77     1011     0.00        0     13.2
    07/22/2017 04:15      0.0        0      0.0      292     64.3     64.5     64.1       79     1011     0.00        0     13.2
    07/22/2017 04:30      0.0        0      0.0      293     64.1     64.4     63.9       79     1011     0.00        0     13.2
    07/22/2017 04:45      0.2      326      1.0      326     64.1     64.4     63.8       78     1011     0.00        0     13.2
    07/22/2017 05:00      0.1      358      0.7       29     64.3     64.5     64.1       78     1012     0.00        2     13.2
    07/22/2017 05:15      0.0        0      0.0      347     63.9     64.2     63.6       80     1012     0.00        7     13.2
    07/22/2017 05:30      0.0        0      0.0      347     63.5     63.8     63.2       81     1012     0.00       17     13.2
    07/22/2017 05:45      0.0        0      0.0      264     63.7     64.0     63.3       81     1012     0.00       26     13.2
    07/22/2017 06:00      0.4      195      1.3      200     64.3     65.0     63.8       81     1012     0.00       67     13.2
    07/22/2017 06:15      0.5      199      1.4      197     66.5     67.7     64.9       73     1012     0.00      147     13.2
    07/22/2017 06:30      1.2      261      2.8      299     67.9     68.4     67.5       71     1012     0.00      195     13.2
    07/22/2017 06:45      1.0      222      2.7      209     69.2     70.1     68.0       67     1012     0.00      242     13.2
    07/22/2017 07:00      1.2      148      3.2      157     70.7     71.5     69.5       64     1012     0.00      290     13.1
    07/22/2017 07:15      1.9      131      4.6      158     72.0     72.6     71.0       63     1012     0.00      339     13.1